createdAt,value
2017-11-25T00:00:22.237Z,87.08
2017-11-25T00:01:02.638Z,86.99
2017-11-25T00:01:43.103Z,87.37
2017-11-25T00:02:23.442Z,87.37
2017-11-25T00:03:03.875Z,87.03
2017-11-25T00:03:44.293Z,87.75
2017-11-25T00:04:24.649Z,87.75
2017-11-25T00:05:05.070Z,87.03
2017-11-25T00:05:45.476Z,87.51
2017-11-25T00:06:25.872Z,86.75
2017-11-25T00:07:06.256Z,87.03
2017-11-25T00:07:46.667Z,87.23
2017-11-25T00:08:27.066Z,87.13
2017-11-25T00:09:07.502Z,87.32
2017-11-25T00:09:47.829Z,87.13
2017-11-25T00:10:28.266Z,87.23
2017-11-25T00:11:08.664Z,87.23
2017-11-25T00:11:49.047Z,87.23
2017-11-25T00:12:29.494Z,86.36
2017-11-25T00:13:09.956Z,85.55
2017-11-25T00:13:50.330Z,84.98
2017-11-25T00:14:30.745Z,84.88
2017-11-25T00:15:11.186Z,84.79
2017-11-25T00:15:51.545Z,84.31
2017-11-25T00:16:31.979Z,84.12
2017-11-25T00:17:12.390Z,83.65
2017-11-25T00:17:52.788Z,82.89
2017-11-25T00:18:33.219Z,83.17
2017-11-25T00:19:13.704Z,82.98
2017-11-25T00:19:54.053Z,83.65
2017-11-25T00:20:34.456Z,83.65
2017-11-25T00:21:14.811Z,83.84
2017-11-25T00:21:55.210Z,83.74
2017-11-25T00:22:35.612Z,83.65
2017-11-25T00:23:16.061Z,83.07
2017-11-25T00:23:56.412Z,83.26
2017-11-25T00:24:36.813Z,83.36
2017-11-25T00:25:17.170Z,83.65
2017-11-25T00:25:57.608Z,84.03
2017-11-25T00:26:38.019Z,84.03
2017-11-25T00:27:18.449Z,84.41
2017-11-25T00:27:58.818Z,83.84
2017-11-25T00:28:39.249Z,84.12
2017-11-25T00:29:19.673Z,84.03
2017-11-25T00:30:00.028Z,84.31
2017-11-25T00:30:40.416Z,84.03
2017-11-25T00:31:20.827Z,84.03
2017-11-25T00:32:01.257Z,84.12
2017-11-25T00:32:41.640Z,84.03
2017-11-25T00:33:22.106Z,84.31
2017-11-25T00:34:02.570Z,83.74
2017-11-25T00:34:43.025Z,83.65
2017-11-25T00:35:23.335Z,83.93
2017-11-25T00:36:03.708Z,83.45
2017-11-25T00:36:44.063Z,83.32
2017-11-25T00:37:24.528Z,83.32
2017-11-25T00:38:04.899Z,83.98
2017-11-25T00:38:45.282Z,83.98
2017-11-25T00:39:25.737Z,84.65
2017-11-25T00:40:06.146Z,84.65
2017-11-25T00:40:46.587Z,85.13
2017-11-25T00:41:26.974Z,84.75
2017-11-25T00:42:07.422Z,84.65
2017-11-25T00:42:47.760Z,85.6
2017-11-25T00:43:28.199Z,86.18
2017-11-25T00:44:08.536Z,86.36
2017-11-25T00:44:49.052Z,86.08
2017-11-25T00:45:29.599Z,86.27
2017-11-25T00:46:09.909Z,86.41
2017-11-25T00:46:50.579Z,85.64
2017-11-25T00:47:30.799Z,85.36
2017-11-25T00:48:11.817Z,84.88
2017-11-25T00:48:52.939Z,85.08
2017-11-25T00:49:33.150Z,85.27
2017-11-25T00:50:13.453Z,84.88
2017-11-25T00:50:53.798Z,84.88
2017-11-25T00:51:34.236Z,84.03
2017-11-25T00:52:15.286Z,83.36
2017-11-25T00:52:55.799Z,83.65
2017-11-25T00:53:36.282Z,83.36
2017-11-25T00:54:17.472Z,83.55
2017-11-25T00:54:58.424Z,83.69
2017-11-25T00:55:38.933Z,83.26
2017-11-25T00:56:19.432Z,83.74
2017-11-25T00:57:00.082Z,83.55
2017-11-25T00:57:40.445Z,83.17
2017-11-25T00:58:20.904Z,83.55
2017-11-25T00:59:01.294Z,83.65
2017-11-25T00:59:41.722Z,83.65
2017-11-25T01:00:22.075Z,83.36
2017-11-25T01:01:02.519Z,82.98
2017-11-25T01:01:42.942Z,83.07
2017-11-25T01:02:23.363Z,83.17
2017-11-25T01:03:03.692Z,83.07
2017-11-25T01:03:44.144Z,82.98
2017-11-25T01:04:24.525Z,82.89
2017-11-25T01:05:04.913Z,83.17
2017-11-25T01:05:45.490Z,83.45
2017-11-25T01:06:25.751Z,83.17
2017-11-25T01:07:06.123Z,83.17
2017-11-25T01:07:46.552Z,83.74
2017-11-25T01:08:27.049Z,84.03
2017-11-25T01:09:07.456Z,84.31
2017-11-25T01:09:47.853Z,83.93
2017-11-25T01:10:28.595Z,84.03
2017-11-25T01:11:08.972Z,83.84
2017-11-25T01:11:49.107Z,84.79
2017-11-25T01:12:29.761Z,83.93
2017-11-25T01:13:10.504Z,84.22
2017-11-25T01:13:50.827Z,83.84
2017-11-25T01:14:31.222Z,83.17
2017-11-25T01:15:11.755Z,83.36
2017-11-25T01:15:52.024Z,83.45
2017-11-25T01:16:32.969Z,83.74
2017-11-25T01:17:16.381Z,83.26
2017-11-25T01:17:56.643Z,82.6
2017-11-25T01:18:38.910Z,82.98
2017-11-25T01:19:19.236Z,82.89
2017-11-25T01:20:00.913Z,82.5
2017-11-25T01:20:41.251Z,83.07
2017-11-25T01:21:21.678Z,83.36
2017-11-25T01:22:02.138Z,82.89
2017-11-25T01:22:42.700Z,82.5
2017-11-25T01:23:23.184Z,82.6
2017-11-25T01:24:03.592Z,82.12
2017-11-25T01:24:43.951Z,82.69
2017-11-25T01:25:24.813Z,82.6
2017-11-25T01:26:05.172Z,82.89
2017-11-25T01:26:45.604Z,83.26
2017-11-25T01:27:26.074Z,83.74
2017-11-25T01:28:06.379Z,83.65
2017-11-25T01:28:46.842Z,82.98
2017-11-25T01:29:27.225Z,82.98
2017-11-25T01:30:07.652Z,82.89
2017-11-25T01:30:48.043Z,83.17
2017-11-25T01:31:28.500Z,82.5
2017-11-25T01:32:08.888Z,82.21
2017-11-25T01:32:49.289Z,83.17
2017-11-25T01:33:29.681Z,83.17
2017-11-25T01:34:10.049Z,83.17
2017-11-25T01:34:50.430Z,83.26
2017-11-25T01:35:30.859Z,83.36
2017-11-25T01:36:11.344Z,83.74
2017-11-25T01:36:51.694Z,83.65
2017-11-25T01:37:32.058Z,83.93
2017-11-25T01:38:12.838Z,83.65
2017-11-25T01:38:53.090Z,83.84
2017-11-25T01:39:33.445Z,84.03
2017-11-25T01:40:13.885Z,83.74
2017-11-25T01:40:54.399Z,83.93
2017-11-25T01:41:34.714Z,84.12
2017-11-25T01:42:15.123Z,83.74
2017-11-25T01:42:55.634Z,83.74
2017-11-25T01:43:35.940Z,84.12
2017-11-25T01:44:16.501Z,84.03
2017-11-25T01:44:57.064Z,84.12
2017-11-25T01:45:37.458Z,84.03
2017-11-25T01:46:17.929Z,84.12
2017-11-25T01:46:58.343Z,83.93
2017-11-25T01:47:38.824Z,83.84
2017-11-25T01:48:19.204Z,83.74
2017-11-25T01:48:59.597Z,83.84
2017-11-25T01:49:40.032Z,83.45
2017-11-25T01:50:20.439Z,83.45
2017-11-25T01:51:00.851Z,83.17
2017-11-25T01:51:41.268Z,83.17
2017-11-25T01:52:21.643Z,83.74
2017-11-25T01:53:02.045Z,83.36
2017-11-25T01:53:43.225Z,83.65
2017-11-25T01:54:23.022Z,83.65
2017-11-25T01:55:03.460Z,82.98
2017-11-25T01:55:43.909Z,83.17
2017-11-25T01:56:25.250Z,83.45
2017-11-25T01:57:05.710Z,83.93
2017-11-25T01:57:46.492Z,83.36
2017-11-25T01:58:26.757Z,83.36
2017-11-25T01:59:07.215Z,83.26
2017-11-25T01:59:47.554Z,83.26
2017-11-25T02:00:29.323Z,83.17
2017-11-25T02:01:09.975Z,82.98
2017-11-25T02:01:50.496Z,82.6
2017-11-25T02:02:31.021Z,81.17
2017-11-25T02:03:11.716Z,81.07
2017-11-25T02:03:54.661Z,81.36
2017-11-25T02:04:35.222Z,81.55
2017-11-25T02:05:15.784Z,80.98
2017-11-25T02:05:56.183Z,80.94
2017-11-25T02:06:36.791Z,80.46
2017-11-25T02:07:17.371Z,81.03
2017-11-25T02:07:58.094Z,81.13
2017-11-25T02:08:38.540Z,81.6
2017-11-25T02:09:19.166Z,81.23
2017-11-25T02:09:59.482Z,81.32
2017-11-25T02:10:40.077Z,82.46
2017-11-25T02:11:20.602Z,83.22
2017-11-25T02:12:01.844Z,82.99
2017-11-25T02:12:43.213Z,82.99
2017-11-25T02:13:23.758Z,83.09
2017-11-25T02:14:04.379Z,82.9
2017-11-25T02:14:44.844Z,82.7
2017-11-25T02:15:25.237Z,83.56
2017-11-25T02:16:06.834Z,83.18
2017-11-25T02:16:48.748Z,83.09
2017-11-25T02:17:32.804Z,83.85
2017-11-25T02:18:13.136Z,83.47
2017-11-25T02:18:53.662Z,83.18
2017-11-25T02:19:34.155Z,83.65
2017-11-25T02:20:14.560Z,83.47
2017-11-25T02:20:55.132Z,83.56
2017-11-25T02:21:35.398Z,83.28
2017-11-25T02:22:16.046Z,83.56
2017-11-25T02:22:56.295Z,83.56
2017-11-25T02:23:40.439Z,83.75
2017-11-25T02:24:20.850Z,83.56
2017-11-25T02:25:01.804Z,83.18
2017-11-25T02:25:42.258Z,83.56
2017-11-25T02:26:22.720Z,83.18
2017-11-25T02:27:03.471Z,83.56
2017-11-25T02:27:44.445Z,83.85
2017-11-25T02:28:25.061Z,83.75
2017-11-25T02:29:05.588Z,83.56
2017-11-25T02:29:45.980Z,83.85
2017-11-25T02:30:26.468Z,83.09
2017-11-25T02:31:06.887Z,84.23
2017-11-25T02:34:04.980Z,83.85
2017-11-25T02:34:46.289Z,84.04
2017-11-25T02:35:26.656Z,84.7
2017-11-25T02:36:07.021Z,83.85
2017-11-25T02:36:49.221Z,83.85
2017-11-25T02:37:29.583Z,83.65
2017-11-25T02:38:10.042Z,83.94
2017-11-25T02:38:50.892Z,83.65
2017-11-25T02:39:31.088Z,84.61
2017-11-25T02:40:11.797Z,83.75
2017-11-25T02:40:52.052Z,83.09
2017-11-25T02:41:32.448Z,84.13
2017-11-25T02:42:12.879Z,84.52
2017-11-25T02:42:53.685Z,83.94
2017-11-25T02:43:37.057Z,84.33
2017-11-25T02:44:17.432Z,83.85
2017-11-25T02:44:58.448Z,83.94
2017-11-25T02:45:39.705Z,83.75
2017-11-25T02:46:20.631Z,85.08
2017-11-25T02:47:01.184Z,84.61
2017-11-25T02:47:41.526Z,83.65
2017-11-25T02:48:22.708Z,83.37
2017-11-25T02:49:03.307Z,83.65
2017-11-25T02:49:44.061Z,84.04
2017-11-25T02:50:24.536Z,84.52
2017-11-25T02:51:04.805Z,84.04
2017-11-25T02:51:45.297Z,83.94
2017-11-25T02:52:25.732Z,84
2017-11-25T02:53:06.519Z,84.42
2017-11-25T02:53:48.196Z,83.75
2017-11-25T02:54:29.428Z,85.37
2017-11-25T02:55:09.953Z,85.08
2017-11-25T02:55:50.402Z,83.94
2017-11-25T02:56:30.783Z,84.13
2017-11-25T02:57:12.466Z,84.99
2017-11-25T02:57:52.973Z,84.52
2017-11-25T02:58:33.405Z,84.99
2017-11-25T02:59:14.559Z,84.13
2017-11-25T02:59:55.129Z,83.94
2017-11-25T03:00:35.477Z,83.94
2017-11-25T03:01:15.945Z,83.94
2017-11-25T03:01:56.375Z,84.04
2017-11-25T03:02:36.826Z,85.08
2017-11-25T03:03:17.303Z,85.08
2017-11-25T03:03:57.919Z,85.18
2017-11-25T03:04:40.276Z,83.94
2017-11-25T03:05:20.664Z,84.8
2017-11-25T03:06:01.842Z,83.75
2017-11-25T03:06:42.202Z,84.13
2017-11-25T03:07:22.814Z,83.85
2017-11-25T03:08:03.228Z,84.04
2017-11-25T03:08:43.605Z,83.94
2017-11-25T03:09:24.037Z,84.33
2017-11-25T03:10:05.291Z,83.85
2017-11-25T03:10:45.894Z,84.7
2017-11-25T03:11:26.241Z,84.04
2017-11-25T03:12:07.541Z,84.7
2017-11-25T03:12:48.034Z,84.13
2017-11-25T03:13:28.473Z,83.28
2017-11-25T03:14:09.518Z,83.33
2017-11-25T03:14:49.936Z,83.9
2017-11-25T03:15:30.463Z,83.75
2017-11-25T03:16:10.843Z,83.62
2017-11-25T03:16:51.330Z,84
2017-11-25T03:17:31.784Z,83.94
2017-11-25T03:18:12.310Z,83.75
2017-11-25T03:18:53.303Z,84.7
2017-11-25T03:19:34.634Z,83.9
2017-11-25T03:20:16.826Z,83.85
2017-11-25T03:21:00.191Z,83.81
2017-11-25T03:21:40.542Z,83.81
2017-11-25T03:22:21.148Z,84.8
2017-11-25T03:23:02.764Z,83.85
2017-11-25T03:23:46.934Z,83.65
2017-11-25T03:24:30.146Z,83.33
2017-11-25T03:25:10.598Z,83.71
2017-11-25T03:25:51.007Z,83.62
2017-11-25T03:26:31.395Z,83.71
2017-11-25T03:27:11.874Z,83.71
2017-11-25T03:27:52.405Z,83.9
2017-11-25T03:28:33.666Z,84
2017-11-25T03:29:14.027Z,83.81
2017-11-25T03:29:54.579Z,84.66
2017-11-25T03:30:34.997Z,84
2017-11-25T03:31:15.340Z,83.9
2017-11-25T03:31:55.880Z,83.9
2017-11-25T03:32:36.338Z,84.85
2017-11-25T03:33:16.783Z,83.62
2017-11-25T03:33:57.747Z,84.95
2017-11-25T03:34:37.768Z,84.47
2017-11-25T03:35:18.822Z,84.76
2017-11-25T03:35:59.299Z,83.71
2017-11-25T03:36:41.159Z,83.81
2017-11-25T03:37:21.859Z,83.9
2017-11-25T03:38:02.232Z,83.81
2017-11-25T03:38:42.599Z,84.76
2017-11-25T03:39:24.219Z,85.04
2017-11-25T03:40:04.680Z,84.95
2017-11-25T03:40:46.397Z,84.85
2017-11-25T03:41:26.801Z,84.56
2017-11-25T03:42:07.392Z,83.71
2017-11-25T03:42:47.784Z,84.85
2017-11-25T03:43:28.204Z,84.76
2017-11-25T03:44:09.111Z,84.95
2017-11-25T03:44:49.600Z,84.19
2017-11-25T03:45:30.587Z,83.62
2017-11-25T03:46:10.653Z,84
2017-11-25T03:46:51.475Z,83.71
2017-11-25T03:47:31.892Z,84.76
2017-11-25T03:48:12.431Z,85.61
2017-11-25T03:48:54.497Z,84.47
2017-11-25T03:49:34.960Z,83.62
2017-11-25T03:50:15.399Z,83.52
2017-11-25T03:50:55.995Z,84.76
2017-11-25T03:51:36.241Z,84.85
2017-11-25T03:52:16.668Z,84.56
2017-11-25T03:52:57.145Z,84.09
2017-11-25T03:53:38.019Z,83.81
2017-11-25T03:54:18.443Z,84
2017-11-25T03:54:58.951Z,84.66
2017-11-25T03:55:39.477Z,83.81
2017-11-25T03:56:19.904Z,83.23
2017-11-25T03:57:00.262Z,83.9
2017-11-25T03:57:40.748Z,84.38
2017-11-25T03:58:21.533Z,84.19
2017-11-25T03:59:02.324Z,84.09
2017-11-25T03:59:42.789Z,84
2017-11-25T04:00:23.417Z,84
2017-11-25T04:01:03.818Z,83.04
2017-11-25T04:01:44.232Z,82.38
2017-11-25T04:42:03.475Z,87.19
2017-11-25T04:42:52.095Z,87.38
2017-11-25T04:43:40.713Z,87.47
2017-11-25T04:44:27.447Z,87.28
2017-11-25T04:45:15.237Z,87.19
2017-11-25T04:46:03.594Z,86.9
2017-11-25T04:46:52.192Z,86.9
2017-11-25T04:47:39.276Z,86.99
2017-11-25T04:48:21.324Z,87.19
2017-11-25T04:49:06.673Z,86.24
2017-11-25T04:49:48.671Z,87.57
2017-11-25T04:50:34.885Z,86.99
2017-11-25T04:51:16.686Z,86.33
2017-11-25T04:51:57.708Z,86.05
2017-11-25T04:52:38.060Z,86.61
2017-11-25T04:56:19.001Z,85.86
2017-11-25T04:58:09.460Z,84.47
2017-11-25T04:58:58.024Z,84.09
2017-11-25T04:59:50.329Z,84.52
2017-11-25T05:00:38.453Z,84.95
2017-11-25T05:03:04.682Z,83.71
2017-11-25T05:06:13.359Z,82.38
2017-11-25T05:07:01.364Z,82.95
2017-11-25T05:07:50.055Z,82.09
2017-11-25T05:08:37.280Z,81.71
2017-11-25T05:09:20.231Z,81.05
2017-11-25T05:10:00.459Z,80.76
2017-11-25T05:10:41.501Z,80.1
2017-11-25T05:11:22.150Z,80.19
2017-11-25T05:12:05.337Z,79.14
2017-11-25T05:12:46.132Z,80.19
2017-11-25T05:13:26.462Z,80.95
2017-11-25T05:14:06.963Z,81.01
2017-11-25T05:14:47.294Z,81.67
2017-11-25T05:15:27.675Z,81.24
2017-11-25T05:16:08.232Z,82.19
2017-11-25T05:16:48.567Z,81.81
2017-11-25T05:17:29.030Z,82.28
2017-11-25T05:18:09.481Z,80.86
2017-11-25T05:18:53.642Z,80.47
2017-11-25T05:19:36.815Z,80.76
2017-11-25T05:20:17.459Z,82.19
2017-11-25T05:21:01.241Z,81.24
2017-11-25T05:22:53.431Z,80
2017-11-25T05:23:40.273Z,79.24
2017-11-25T05:24:36.305Z,79.91
2017-11-25T05:25:19.074Z,80.1
2017-11-25T05:26:03.031Z,79.52
2017-11-25T05:28:37.550Z,80.29
2017-11-25T05:29:27.004Z,79.91
2017-11-25T05:30:21.738Z,79.62
2017-11-25T05:31:06.997Z,79.05
2017-11-25T05:34:20.603Z,80.04
2017-11-25T05:35:10.563Z,78.86
2017-11-25T05:36:01.678Z,78.29
2017-11-25T05:36:45.723Z,78.96
2017-11-25T05:38:35.249Z,79.33
2017-11-25T05:39:15.844Z,79.81
2017-11-25T05:39:56.252Z,79.52
2017-11-25T05:40:36.842Z,79.05
2017-11-25T05:41:17.235Z,79.43
2017-11-25T05:41:57.788Z,78.99
2017-11-25T05:42:38.168Z,78.86
2017-11-25T05:43:18.607Z,78.48
2017-11-25T05:43:59.006Z,78.29
2017-11-25T05:44:40.744Z,79.14
2017-11-25T05:45:22.016Z,78.86
2017-11-25T05:46:02.508Z,79.52
2017-11-25T05:46:43.012Z,79.14
2017-11-25T05:47:23.393Z,78.96
2017-11-25T05:48:03.841Z,78.48
2017-11-25T05:48:44.206Z,78.48
2017-11-25T05:49:24.611Z,78.57
2017-11-25T05:50:05.111Z,78.57
2017-11-25T05:50:45.994Z,79.91
2017-11-25T05:51:26.424Z,79.81
2017-11-25T05:52:07.355Z,79.52
2017-11-25T05:52:47.736Z,78.86
2017-11-25T05:53:29.753Z,78.86
2017-11-25T05:54:10.165Z,78.48
2017-11-25T05:54:50.585Z,79.24
2017-11-25T05:55:31.458Z,79.52
2017-11-25T05:56:11.864Z,78.38
2017-11-25T05:56:52.314Z,78.67
2017-11-25T05:57:32.746Z,79.62
2017-11-25T05:58:13.137Z,79.62
2017-11-25T05:58:54.384Z,79.05
2017-11-25T05:59:37.240Z,79.43
2017-11-25T06:00:17.669Z,79.33
2017-11-25T06:00:59.637Z,79.33
2017-11-25T06:01:40.033Z,78.99
2017-11-25T06:02:20.441Z,79.09
2017-11-25T06:03:02.108Z,79.19
2017-11-25T06:03:42.947Z,80.13
2017-11-25T06:04:23.341Z,79.66
2017-11-25T06:05:03.709Z,80.04
2017-11-25T06:05:44.121Z,79.19
2017-11-25T06:06:24.533Z,79.24
2017-11-25T06:07:05.074Z,80.13
2017-11-25T06:07:46.548Z,79.85
2017-11-25T06:08:27.154Z,80.42
2017-11-25T06:09:07.400Z,79.94
2017-11-25T06:09:47.812Z,80.13
2017-11-25T06:10:28.203Z,80.23
2017-11-25T06:11:08.971Z,80.61
2017-11-25T06:11:49.312Z,80.33
2017-11-25T06:12:29.771Z,80.71
2017-11-25T06:13:10.272Z,80.76
2017-11-25T06:13:51.461Z,80.61
2017-11-25T06:14:33.123Z,81.56
2017-11-25T06:15:13.548Z,80.8
2017-11-25T06:15:53.989Z,80.57
2017-11-25T06:16:34.362Z,81.24
2017-11-25T06:17:14.722Z,81.37
2017-11-25T06:17:55.178Z,80.8
2017-11-25T06:18:35.618Z,80.9
2017-11-25T06:19:15.980Z,81.09
2017-11-25T06:19:56.390Z,80.8
2017-11-25T06:20:36.763Z,80.9
2017-11-25T06:21:17.228Z,80.9
2017-11-25T06:21:57.674Z,79.85
2017-11-25T06:22:38.040Z,79.38
2017-11-25T06:23:20.416Z,79.91
2017-11-25T06:24:00.837Z,80.86
2017-11-25T06:24:41.269Z,81.24
2017-11-25T06:25:21.635Z,81.85
2017-11-25T06:26:02.072Z,82.8
2017-11-25T06:26:42.484Z,81.9
2017-11-25T06:27:22.899Z,81.33
2017-11-25T06:28:03.291Z,81.95
2017-11-25T06:28:43.718Z,81.33
2017-11-25T06:29:24.232Z,81.37
2017-11-25T06:30:04.572Z,81.28
2017-11-25T06:30:45.008Z,81.56
2017-11-25T06:31:26.368Z,81.28
2017-11-25T06:32:06.088Z,80.99
2017-11-25T06:32:46.471Z,81.56
2017-11-25T06:33:26.898Z,82.14
2017-11-25T06:34:07.267Z,82.32
2017-11-25T06:34:47.712Z,82.9
2017-11-25T06:35:28.198Z,82.8
2017-11-25T06:36:09.377Z,81.95
2017-11-25T06:36:49.646Z,82.61
2017-11-25T06:37:29.885Z,82.14
2017-11-25T06:38:10.279Z,82.23
2017-11-25T06:38:51.102Z,82.42
2017-11-25T06:39:31.371Z,82.23
2017-11-25T06:40:11.905Z,81.28
2017-11-25T06:40:52.337Z,80.9
2017-11-25T06:41:32.811Z,80.52
2017-11-25T06:42:13.157Z,80.99
2017-11-25T06:42:53.619Z,81.18
2017-11-25T06:43:35.848Z,81.56
2017-11-25T06:44:16.451Z,81.18
2017-11-25T06:44:56.777Z,81.18
2017-11-25T06:45:37.110Z,80.8
2017-11-25T06:46:17.573Z,80.9
2017-11-25T06:46:57.903Z,81.47
2017-11-25T06:47:38.318Z,81.13
2017-11-25T06:48:18.730Z,80.52
2017-11-25T06:48:59.658Z,80.99
2017-11-25T06:49:40.017Z,80.61
2017-11-25T06:50:20.546Z,80.13
2017-11-25T06:51:01.321Z,80.71
2017-11-25T06:51:41.650Z,80.04
2017-11-25T06:52:22.142Z,79.85
2017-11-25T06:53:02.506Z,80.8
2017-11-25T06:53:43.015Z,80.99
2017-11-25T06:54:23.333Z,80.61
2017-11-25T06:55:03.806Z,82.14
2017-11-25T06:55:44.355Z,81.47
2017-11-25T06:56:24.750Z,80.42
2017-11-25T06:57:05.339Z,80.52
2017-11-25T06:57:45.832Z,80.71
2017-11-25T06:58:28.607Z,81.09
2017-11-25T06:59:09.087Z,81.37
2017-11-25T06:59:49.779Z,81.76
2017-11-25T07:00:30.151Z,81.76
2017-11-25T07:01:10.518Z,82.23
2017-11-25T07:01:50.934Z,81.85
2017-11-25T07:02:31.318Z,81.28
2017-11-25T07:03:11.744Z,81.76
2017-11-25T07:03:52.164Z,81.95
2017-11-25T07:04:32.547Z,81.47
2017-11-25T07:05:12.977Z,81.28
2017-11-25T07:05:53.386Z,80.61
2017-11-25T07:06:33.848Z,81.18
2017-11-25T07:07:14.262Z,80.9
2017-11-25T07:07:54.699Z,80.52
2017-11-25T07:08:35.092Z,80.99
2017-11-25T07:09:15.471Z,81.18
2017-11-25T07:09:55.881Z,81.09
2017-11-25T07:10:36.313Z,81.28
2017-11-25T07:11:16.772Z,80.99
2017-11-25T07:11:57.146Z,81.18
2017-11-25T07:12:37.547Z,81.95
2017-11-25T07:13:17.951Z,81.85
2017-11-25T07:13:58.374Z,81.76
2017-11-25T07:14:38.791Z,82.23
2017-11-25T07:15:19.181Z,81.76
2017-11-25T07:15:59.589Z,81.28
2017-11-25T07:16:40.017Z,81.47
2017-11-25T07:17:20.429Z,81.09
2017-11-25T07:18:00.815Z,80.8
2017-11-25T07:18:41.222Z,80.13
2017-11-25T07:19:21.620Z,81.09
2017-11-25T07:20:02.018Z,80.13
2017-11-25T07:20:42.415Z,79.75
2017-11-25T07:21:22.827Z,79.28
2017-11-25T07:22:03.206Z,79.57
2017-11-25T07:22:43.617Z,79.66
2017-11-25T07:23:23.995Z,78.99
2017-11-25T07:24:04.417Z,78.52
2017-11-25T07:24:44.818Z,78.52
2017-11-25T07:25:25.233Z,78.52
2017-11-25T07:26:05.643Z,78.99
2017-11-25T07:26:46.109Z,79.19
2017-11-25T07:27:26.480Z,79.19
2017-11-25T07:28:06.869Z,79.47
2017-11-25T07:28:47.267Z,80.04
2017-11-25T07:29:27.735Z,80.13
2017-11-25T07:30:08.112Z,78.99
2017-11-25T07:30:48.495Z,78.61
2017-11-25T07:31:28.915Z,79.38
2017-11-25T07:32:09.294Z,79.38
2017-11-25T07:32:49.721Z,80.23
2017-11-25T07:33:30.152Z,79.47
2017-11-25T07:34:10.506Z,78.71
2017-11-25T07:34:50.908Z,78.52
2017-11-25T07:35:31.297Z,79.09
2017-11-25T07:36:11.705Z,79.47
2017-11-25T07:36:52.319Z,78.99
2017-11-25T07:37:32.704Z,78.61
2017-11-25T07:38:13.138Z,79.28
2017-11-25T07:38:53.564Z,78.77
2017-11-25T07:39:33.949Z,79.66
2017-11-25T07:40:14.387Z,79.47
2017-11-25T07:40:54.777Z,80.71
2017-11-25T07:41:35.168Z,79.09
2017-11-25T07:42:15.607Z,79.19
2017-11-25T07:42:56.024Z,79.66
2017-11-25T07:44:43.636Z,78.99
2017-11-25T07:45:24.264Z,79.33
2017-11-25T07:46:04.675Z,80.47
2017-11-25T07:46:45.079Z,79.72
2017-11-25T07:47:25.465Z,78.86
2017-11-25T07:48:05.846Z,78.77
2017-11-25T07:48:46.248Z,79.05
2017-11-25T07:49:26.706Z,78.96
2017-11-25T07:50:07.120Z,79.52
2017-11-25T07:50:47.687Z,79.52
2017-11-25T07:51:28.312Z,79.14
2017-11-25T07:52:09.580Z,79.43
2017-11-25T07:52:50.313Z,79.43
2017-11-25T07:58:03.092Z,79.19
2017-11-25T07:58:45.955Z,80.42
2017-11-25T07:59:27.046Z,80.61
2017-11-25T08:00:06.931Z,79.57
2017-11-25T08:00:47.409Z,79.19
2017-11-25T08:01:28.170Z,79.19
2017-11-25T08:02:08.519Z,79.66
2017-11-25T08:02:48.883Z,79.75
2017-11-25T08:09:25.863Z,78.23
2017-11-25T08:10:14.371Z,78.8
2017-11-25T08:11:03.003Z,78.52
2017-11-25T08:11:49.575Z,79.38
2017-11-25T08:12:38.519Z,79.38
2017-11-25T08:13:26.533Z,78.99
2017-11-25T08:14:15.445Z,78.61
2017-11-25T08:15:04.174Z,79.19
2017-11-25T08:15:52.540Z,78.37
2017-11-25T08:16:40.966Z,78.56
2017-11-25T08:17:29.803Z,78.75
2017-11-25T08:18:18.022Z,77.98
2017-11-25T08:19:06.727Z,78.56
2017-11-25T08:19:55.838Z,77.8
2017-11-25T08:20:44.562Z,79.22
2017-11-25T08:23:13.863Z,78.17
2017-11-25T08:23:58.125Z,78.27
2017-11-25T08:24:39.742Z,78.75
2017-11-25T08:25:21.195Z,78.08
2017-11-25T08:26:02.012Z,77.51
2017-11-25T08:26:42.319Z,77.22
2017-11-25T08:27:24.903Z,77.22
2017-11-25T08:28:07.151Z,77.22
2017-11-25T08:28:47.576Z,77.51
2017-11-25T08:29:28.171Z,76.94
2017-11-25T08:30:08.964Z,77.32
2017-11-25T08:30:49.698Z,76.84
2017-11-25T08:31:31.686Z,78.27
2017-11-25T08:32:14.292Z,77.98
2017-11-25T08:32:57.608Z,77.51
2017-11-25T08:33:39.812Z,77.98
2017-11-25T08:34:21.635Z,77.42
2017-11-25T08:35:03.737Z,77.42
2017-11-25T08:35:46.753Z,77.13
2017-11-25T08:36:30.887Z,77.61
2017-11-25T08:37:11.585Z,77.22
2017-11-25T08:37:53.632Z,77.32
2017-11-25T08:38:34.931Z,77.51
2017-11-25T08:39:15.678Z,77.22
2017-11-25T08:39:58.783Z,77.13
2017-11-25T08:40:42.755Z,77.03
2017-11-25T08:41:24.871Z,77.22
2017-11-25T08:42:07.116Z,77.22
2017-11-25T08:52:45.393Z,77.13
2017-11-25T08:58:13.801Z,77.61
2017-11-25T09:00:06.651Z,77.98
2017-11-25T09:00:56.221Z,77.51
2017-11-25T09:03:31.109Z,77.51
2017-11-25T09:04:20.527Z,78.27
2017-11-25T09:05:17.038Z,77.28
2017-11-25T09:06:07.212Z,78.8
2017-11-25T09:06:47.444Z,78.17
2017-11-25T09:07:30.698Z,77.98
2017-11-25T09:08:14.251Z,77.7
2017-11-25T09:08:57.629Z,78.17
2017-11-25T09:09:44.622Z,78.17
2017-11-25T09:10:28.187Z,78.37
2017-11-25T09:11:27.483Z,77.89
2017-11-25T09:12:10.568Z,77.42
2017-11-25T09:15:32.566Z,78.17
2017-11-25T09:16:22.622Z,78.56
2017-11-25T09:18:43.626Z,77.98
2017-11-25T09:19:32.932Z,78.85
2017-11-25T09:20:18.688Z,77.89
2017-11-25T09:21:01.950Z,77.89
2017-11-25T09:21:42.262Z,78.08
2017-11-25T09:22:23.981Z,78.46
2017-11-25T09:24:21.911Z,78.65
2017-11-25T09:25:01.877Z,77.89
2017-11-25T09:25:42.264Z,78.65
2017-11-25T09:26:22.654Z,77.61
2017-11-25T09:27:03.081Z,77.51
2017-11-25T09:27:43.486Z,78.08
2017-11-25T09:28:23.916Z,77.89
2017-11-25T09:29:04.269Z,77.89
2017-11-25T09:29:44.773Z,77.42
2017-11-25T09:30:25.143Z,77.7
2017-11-25T09:31:05.464Z,77.89
2017-11-25T09:31:45.854Z,78.17
2017-11-25T09:32:26.309Z,77.89
2017-11-25T09:33:06.733Z,77.32
2017-11-25T09:33:47.062Z,77.32
2017-11-25T09:34:27.500Z,77.32
2017-11-25T09:35:09.685Z,77.7
2017-11-25T09:38:05.266Z,77.32
2017-11-25T09:38:55.482Z,77.8
2017-11-25T09:39:44.628Z,78.56
2017-11-25T09:40:34.578Z,78.17
2017-11-25T09:43:03.191Z,77.7
2017-11-25T09:43:51.976Z,77.42
2017-11-25T09:44:40.787Z,77.98
2017-11-25T09:45:27.823Z,77.98
2017-11-25T09:46:11.476Z,77.89
2017-11-25T09:46:52.008Z,77.13
2017-11-25T09:47:32.766Z,77.32
2017-11-25T09:48:13.365Z,78.37
2017-11-25T09:48:54.146Z,77.03
2017-11-25T09:49:34.991Z,77.22
2017-11-25T09:50:15.591Z,77.32
2017-11-25T09:50:56.924Z,77.61
2017-11-25T09:51:37.785Z,77.61
2017-11-25T09:54:01.719Z,78.08
2017-11-25T09:54:59.136Z,78.75
2017-11-25T09:55:54.929Z,78.56
2017-11-25T09:56:50.615Z,77.22
2017-11-25T09:57:44.996Z,77.03
2017-11-25T09:58:38.217Z,77.28
2017-11-25T09:59:32.013Z,77.85
2017-11-25T10:00:30.455Z,78.52
2017-11-25T10:01:30.612Z,78.14
2017-11-25T10:54:47.428Z,75.7
2017-11-25T10:58:08.145Z,76.04
2017-11-25T11:01:01.964Z,77.51
2017-11-25T11:05:36.266Z,75.04
2017-11-25T11:19:17.338Z,73.74
2017-11-25T11:20:07.416Z,73.65
2017-11-25T11:20:47.941Z,74.12
2017-11-25T11:21:29.325Z,74.6
2017-11-25T11:22:09.726Z,73.83
2017-11-25T11:22:50.129Z,72.78
2017-11-25T11:23:30.552Z,73.45
2017-11-25T11:24:11.095Z,73.17
2017-11-25T11:24:51.575Z,73.45
2017-11-25T11:25:33.090Z,74.4
2017-11-25T11:26:13.957Z,73.45
2017-11-25T11:27:15.531Z,73.74
2017-11-25T11:28:02.752Z,73.36
2017-11-25T11:28:57.625Z,73.45
2017-11-25T11:30:08.410Z,74.12
2017-11-25T11:37:55.698Z,71.73
2017-11-25T11:39:01.941Z,72.41
2017-11-25T11:41:02.889Z,72.02
2017-11-25T11:41:57.637Z,71.93
2017-11-25T11:46:15.565Z,71.93
2017-11-25T11:47:03.960Z,71.55
2017-11-25T11:47:53.737Z,71.45
2017-11-25T11:48:35.919Z,71.55
2017-11-25T11:49:16.393Z,71.64
2017-11-25T11:50:01.560Z,71.68
2017-11-25T11:55:02.205Z,71.55
2017-11-25T12:04:35.117Z,70.25
2017-11-25T12:05:42.574Z,70.63
2017-11-25T12:06:38.687Z,69.77
2017-11-25T12:15:37.752Z,71.73
2017-11-25T12:16:29.037Z,71.17
2017-11-25T12:18:26.483Z,70.78
2017-11-25T12:19:18.596Z,71.45
2017-11-25T12:20:04.268Z,71.73
2017-11-25T12:35:56.553Z,72.78
2017-11-25T12:36:39.942Z,73.36
2017-11-25T12:37:22.718Z,72.41
2017-11-25T12:38:03.349Z,72.5
2017-11-25T12:38:45.130Z,71.55
2017-11-25T12:39:26.050Z,71.64
2017-11-25T12:40:07.441Z,71.73
2017-11-25T12:40:47.724Z,71.26
2017-11-25T12:52:06.094Z,70.82
2017-11-25T13:00:25.504Z,69.01
2017-11-25T13:12:27.612Z,69.29
2017-11-25T13:13:15.635Z,70.25